Terminal Aerodrome Forecast
Issued by NWS St Louis, MO

Home | Current Version | Previous Version | Graphics & Text | Print | Product List | Glossary On
Versions: 1 2 3 4 5 6 7 8 9 10 11 12 13 14 15 16 17 18 19 20 21 22 23 24 25 26
000
FTUS43 KLSX 281800 AAA
TAFSTL
TAF AMD
KSTL 281851Z 2819/2924 16008KT P6SM VCTS BKN035CB BKN120
      TEMPO 2819/2821 VRB30KT 2SM TSRA BKN028CB
     FM290000 15007KT P6SM SCT050 BKN250
     FM291500 19008KT P6SM BKN035 BKN150=

USA.gov is the U.S. government's official web portal to all federal, state and local government web resources and services.